BA-0003 weather

Brod Airstrip
Brod, Republika Srpska, Bosnia and Herzegovina

Public forecast

Using degrees Celsius for public forecast. Weather courtesy of forecast.io.

METAR (pilot weather report)

Closest report is Tuzla International Airport, 23.3 nm (43.2 km) S. Retrieved 2019/06/16 19:30 UTC (0 seconds ago):

LQTZ 161930Z 06005KT 350V100 9999 TSRA FEW010 SCT030CB BKN040 18/18 Q1016

TAF (pilot weather forecast)

Closest forecast is Tuzla International Airport, 23.3 nm (43.2 km) S. Retrieved 2019/06/16 18:08 UTC (1 hour ago):

TAF LQTZ 161700Z 1618/1718 06005KT 9999 SCT040 TX25/1713Z TN16/1703Z PROB40 TEMPO 1618/1703 VRB15KT 4000 TSRA FEW030CB BKN045 PROB30 TEMPO 1619/1622 VRB15G25KT 2000 TSGR FEW020 SCT030CB BKN045 PROB40 TEMPO 1710/1718 4000 TSRA FEW030CB BKN040